Time;durP1;ratioP1;P1;durP2;ratioP2;P2;SDS_P1;SDS_P2;PMS_P1;PMS_P2;Temp;Humidity;BMP_temperature;BMP_pressure;BME280_temperature;BME280_humidity;BME280_pressure;Samples;Min_cycle;Max_cycle;Signal;HPM_P1;HPM_P2
2022/11/26 00:00:55;;;;;;;;;10.25;9.25;;;;;8.73;80.37;102249.91;5030476;28;45086;-79
2022/11/26 00:03:20;;;;;;;;;13.75;12.75;;;;;8.77;80.27;102254.53;5048975;28;45388;-79
2022/11/26 00:05:49;;;;;;;;;11.50;11.50;;;;;8.76;80.03;102257.94;5036381;28;45499;-79
2022/11/26 00:08:29;;;;;;;;;10.25;9.25;;;;;8.72;80.02;102261.19;5028522;28;45113;-79
2022/11/26 00:10:55;;;;;;;;;8.50;8.25;;;;;8.59;79.90;102242.84;5028841;28;45132;-79
2022/11/26 00:13:23;;;;;;;;;12.75;12.00;;;;;8.62;80.06;102253.53;5029599;28;45101;-79
2022/11/26 00:15:49;;;;;;;;;9.50;9.50;;;;;8.70;80.06;102273.28;5029205;28;45192;-79
2022/11/26 00:18:15;;;;;;;;;12.25;9.75;;;;;8.71;80.23;102271.56;5028663;28;45156;-79
2022/11/26 00:20:41;;;;;;;;;9.75;9.00;;;;;8.69;80.06;102273.19;5028677;28;45195;-79
2022/11/26 00:23:18;;;;;;;;;9.50;7.75;;;;;8.55;80.02;102259.16;5027738;28;45100;-79
2022/11/26 00:25:47;;;;;;;;;10.25;8.50;;;;;8.59;80.02;102269.03;5028847;28;45189;-79
2022/11/26 00:28:25;;;;;;;;;9.00;8.25;;;;;8.63;80.15;102281.53;5029110;28;45642;-79
2022/11/26 00:30:50;;;;;;;;;7.25;7.00;;;;;8.55;79.97;102272.25;5028875;28;45286;-79
2022/11/26 00:33:16;;;;;;;;;9.25;8.25;;;;;8.49;80.06;102275.38;5028932;28;45174;-79
2022/11/26 00:35:41;;;;;;;;;10.33;8.33;;;;;8.51;79.99;102278.09;5028257;28;62973;-81
2022/11/26 00:38:14;;;;;;;;;15.50;11.75;;;;;8.59;80.08;102292.63;5028907;28;45378;-79
2022/11/26 00:40:40;;;;;;;;;12.75;12.25;;;;;8.56;79.91;102286.25;5028231;28;45433;-81
2022/11/26 00:43:10;;;;;;;;;13.75;12.75;;;;;8.51;79.84;102286.84;5042034;28;45623;-81
2022/11/26 00:45:35;;;;;;;;;15.50;13.50;;;;;8.44;79.75;102268.00;5069224;28;45078;-81
2022/11/26 00:48:00;;;;;;;;;13.33;12.67;;;;;8.46;79.77;102285.63;5068128;28;54869;-81
2022/11/26 00:50:30;;;;;;;;;14.00;14.00;;;;;8.36;79.60;102274.41;5049920;28;45144;-81
2022/11/26 00:52:55;;;;;;;;;14.00;13.00;;;;;8.44;79.79;102294.22;5048245;28;45164;-81
2022/11/26 00:55:25;;;;;;;;;10.75;8.75;;;;;8.42;79.64;102296.75;5048584;28;45228;-81
2022/11/26 00:57:50;;;;;;;;;11.50;10.50;;;;;8.37;79.82;102287.63;5047857;28;46068;-81
2022/11/26 01:00:18;;;;;;;;;13.25;12.75;;;;;8.39;79.87;102301.75;5048461;28;45150;-81
2022/11/26 01:02:43;;;;;;;;;14.25;14.25;;;;;8.40;80.27;102300.03;5048214;28;45308;-82
2022/11/26 01:05:09;;;;;;;;;13.00;12.25;;;;;8.26;80.29;102279.00;5048649;28;45255;-81
2022/11/26 01:07:34;;;;;;;;;13.50;12.75;;;;;8.38;80.01;102299.03;5030853;28;45479;-81
2022/11/26 01:10:00;;;;;;;;;10.75;8.75;;;;;8.37;79.99;102303.34;5058092;28;45607;-81
2022/11/26 01:12:25;;;;;;;;;13.00;12.25;;;;;8.23;79.95;102278.81;5068745;28;45052;-81
2022/11/26 01:14:50;;;;;;;;;16.00;13.67;;;;;8.31;79.87;102305.53;5049266;28;45172;-81
2022/11/26 01:17:16;;;;;;;;;17.00;13.00;;;;;8.18;80.10;102282.84;5067552;28;66519;-81
2022/11/26 01:19:41;;;;;;;;;13.00;12.00;;;;;8.35;80.04;102309.25;5067971;28;45131;-81
2022/11/26 01:22:19;;;;;;;;;14.67;14.00;;;;;8.34;80.12;102307.47;5058465;28;62627;-81
2022/11/26 01:24:44;;;;;;;;;12.50;11.50;;;;;8.29;80.24;102294.03;5048066;28;45094;-81
2022/11/26 01:27:11;;;;;;;;;12.00;12.00;;;;;8.33;80.13;102306.56;5048188;28;58713;-81
2022/11/26 01:29:36;;;;;;;;;13.00;13.00;;;;;8.31;79.84;102302.00;5047950;28;45469;-81
2022/11/26 01:32:02;;;;;;;;;16.75;14.25;;;;;8.29;79.73;102299.28;5047547;28;45161;-81
2022/11/26 01:34:27;;;;;;;;;17.25;14.50;;;;;8.06;79.77;102270.59;5047838;28;45255;-81
2022/11/26 01:36:52;;;;;;;;;13.33;13.00;;;;;8.23;79.82;102306.72;5047052;28;68388;-81
2022/11/26 01:39:20;;;;;;;;;17.00;14.00;;;;;8.14;79.75;102299.13;5059806;28;66035;-78
2022/11/26 01:42:23;;;;;;;;;16.00;15.25;;;;;8.15;79.68;102307.91;5068638;28;45221;-81
2022/11/26 01:44:48;;;;;;;;;15.25;14.50;;;;;8.11;79.64;102298.00;5027747;28;45121;-81
2022/11/26 01:47:26;;;;;;;;;17.00;16.75;;;;;8.10;80.10;102296.19;5027446;28;45086;-81
2022/11/26 01:50:31;;;;;;;;;16.50;15.75;;;;;8.12;80.38;102295.47;5027775;28;45366;-81
2022/11/26 01:53:10;;;;;;;;;17.25;16.25;;;;;8.15;80.36;102294.81;5028072;28;45211;-81
2022/11/26 01:55:59;;;;;;;;;17.00;17.00;;;;;8.17;79.97;102299.31;5054331;28;45186;-81
2022/11/26 01:58:32;;;;;;;;;18.75;18.50;;;;;8.17;80.38;102295.81;5055657;28;45256;-81
2022/11/26 02:00:58;;;;;;;;;21.25;21.00;;;;;8.14;80.57;102314.84;5067031;28;45633;-81
2022/11/26 02:03:24;;;;;;;;;19.00;19.00;;;;;8.16;80.51;102313.22;5068266;28;45291;-81
2022/11/26 02:06:02;;;;;;;;;20.75;20.25;;;;;8.18;80.53;102314.25;5055189;28;45132;-81
2022/11/26 02:08:31;;;;;;;;;24.25;22.25;;;;;8.01;80.51;102272.88;5044965;28;47073;-80
2022/11/26 02:10:56;;;;;;;;;19.00;18.00;;;;;8.00;79.99;102268.47;5047299;28;45234;-81
2022/11/26 02:13:22;;;;;;;;;20.75;20.25;;;;;8.22;79.90;102307.50;5047737;28;45372;-81
2022/11/26 02:16:33;;;;;;;;;23.25;22.00;;;;;8.18;79.72;102309.03;5046557;28;45250;-81
2022/11/26 02:19:21;;;;;;;;;33.75;31.75;;;;;8.04;80.13;102291.44;4984610;28;45318;-81
2022/11/26 02:21:54;;;;;;;;;22.25;22.25;;;;;8.14;80.17;102304.38;4979985;28;45205;-81
2022/11/26 02:24:38;;;;;;;;;26.25;24.75;;;;;8.14;80.16;102304.38;5026567;28;45101;-81
2022/11/26 02:27:30;;;;;;;;;25.00;23.00;;;;;8.12;79.71;102303.34;5047479;28;45193;-81
2022/11/26 02:30:07;;;;;;;;;22.25;22.00;;;;;7.96;79.38;102271.66;5047377;28;45210;-81
2022/11/26 02:32:44;;;;;;;;;21.50;19.50;;;;;7.94;79.83;102283.75;5050195;28;45064;-81
2022/11/26 02:35:21;;;;;;;;;22.00;21.00;;;;;7.97;79.45;102297.94;5050775;28;45097;-81
2022/11/26 02:37:52;;;;;;;;;20.75;19.50;;;;;7.89;79.38;102283.44;5050194;28;44967;-81
2022/11/26 02:40:20;;;;;;;;;23.50;22.50;;;;;7.87;79.19;102282.41;5050469;28;45632;-81
2022/11/26 02:42:45;;;;;;;;;24.25;18.00;;;;;7.87;79.41;102291.97;5050064;28;45180;-81
2022/11/26 02:45:15;;;;;;;;;22.00;21.00;;;;;7.82;79.24;102288.09;5050559;28;45285;-81
2022/11/26 02:47:43;;;;;;;;;27.25;25.50;;;;;7.91;79.32;102304.47;5050257;28;45219;-81
2022/11/26 02:50:21;;;;;;;;;27.25;26.25;;;;;7.79;79.02;102287.91;5050583;28;45685;-81
2022/11/26 02:52:49;;;;;;;;;27.50;26.00;;;;;7.76;79.43;102286.88;5049152;28;45315;-81
2022/11/26 02:55:19;;;;;;;;;28.25;26.25;;;;;7.66;79.20;102276.56;5050685;28;45446;-81
2022/11/26 02:57:48;;;;;;;;;24.75;24.75;;;;;7.78;79.24;102302.69;5050396;28;45181;-81
2022/11/26 03:00:15;;;;;;;;;26.25;25.25;;;;;7.76;79.16;102305.19;5049500;28;45189;-81
2022/11/26 03:02:58;;;;;;;;;26.75;26.50;;;;;7.49;78.99;102269.25;5050217;28;45113;-81
2022/11/26 03:05:25;;;;;;;;;27.25;22.75;;;;;7.50;79.16;102284.13;5050614;28;45175;-81
2022/11/26 03:07:52;;;;;;;;;27.00;25.75;;;;;7.60;79.08;102306.63;5049866;28;44968;-81
2022/11/26 03:10:23;;;;;;;;;15.75;12.25;;;;;7.67;79.47;102314.09;5049710;28;45125;-81
2022/11/26 03:12:49;;;;;;;;;22.25;21.00;;;;;7.68;79.35;102311.59;5049527;28;45523;-81
2022/11/26 03:15:14;;;;;;;;;22.00;21.33;;;;;7.69;79.35;102304.69;5049420;28;46643;-78
2022/11/26 03:17:39;;;;;;;;;22.50;22.50;;;;;7.45;79.43;102259.34;5050052;28;45169;-81
2022/11/26 03:20:06;;;;;;;;;22.00;21.00;;;;;7.66;78.94;102307.97;5050111;28;46072;-81
2022/11/26 03:22:31;;;;;;;;;21.75;20.75;;;;;7.53;79.13;102283.44;5046042;28;45110;-81
2022/11/26 03:24:56;;;;;;;;;19.50;17.00;;;;;7.57;79.22;102312.53;5050037;28;45315;-81
2022/11/26 03:27:22;;;;;;;;;23.00;22.00;;;;;7.63;79.13;102320.81;5049509;28;65411;-81
2022/11/26 03:29:47;;;;;;;;;19.50;19.50;;;;;7.44;79.03;102273.25;5049781;28;46218;-81
2022/11/26 03:32:13;;;;;;;;;23.33;21.67;;;;;7.59;79.07;102315.28;5048864;28;59932;-81
2022/11/26 03:34:38;;;;;;;;;21.25;20.75;;;;;7.56;78.83;102312.44;5048791;28;51117;-81
2022/11/26 03:37:03;;;;;;;;;23.50;20.00;;;;;7.54;78.81;102309.72;5060602;28;44993;-81
2022/11/26 03:39:29;;;;;;;;;20.00;19.67;;;;;7.53;78.89;102304.34;5069723;28;62798;-81
2022/11/26 03:41:54;;;;;;;;;21.50;19.50;;;;;7.37;78.83;102279.72;5033421;28;45009;-81
2022/11/26 03:44:20;;;;;;;;;23.75;21.75;;;;;7.36;78.68;102285.75;5049610;28;45206;-81
2022/11/26 03:46:45;;;;;;;;;26.67;24.00;;;;;7.48;79.02;102307.53;5049170;28;45089;-81
2022/11/26 03:49:10;;;;;;;;;32.50;27.75;;;;;7.38;79.17;102285.84;5049438;28;46686;-81
2022/11/26 03:51:36;;;;;;;;;27.00;24.50;;;;;7.44;79.09;102300.31;5049458;28;45034;-81
2022/11/26 03:54:01;;;;;;;;;11.00;10.00;;;;;7.36;79.19;102277.00;5047823;28;45108;-81
2022/11/26 03:56:26;;;;;;;;;22.00;21.00;;;;;7.43;78.76;102293.22;5069609;28;49809;-81
2022/11/26 03:58:51;;;;;;;;;19.75;19.00;;;;;7.32;79.03;102273.25;5050929;28;56034;-81
2022/11/26 04:01:17;;;;;;;;;17.33;17.33;;;;;7.54;78.82;102320.19;5068797;28;58131;-81
2022/11/26 04:03:42;;;;;;;;;21.75;19.75;;;;;7.47;78.80;102304.81;5069722;28;45185;-81
2022/11/26 04:06:07;;;;;;;;;25.33;23.33;;;;;7.39;78.76;102285.03;5053936;28;45061;-81
2022/11/26 04:08:33;;;;;;;;;21.33;20.33;;;;;7.54;78.69;102314.97;5048850;28;51303;-81
2022/11/26 04:10:58;;;;;;;;;20.75;18.00;;;;;7.33;78.67;102282.91;5048525;28;45133;-81
2022/11/26 04:13:24;;;;;;;;;22.00;21.50;;;;;7.50;78.35;102315.53;5049682;28;45070;-81
2022/11/26 04:15:49;;;;;;;;;23.25;21.75;;;;;7.48;78.82;102323.25;5048804;28;44991;-81
2022/11/26 04:18:15;;;;;;;;;20.00;17.00;;;;;7.47;78.57;102325.75;5047706;28;45111;-81
2022/11/26 04:20:41;;;;;;;;;24.00;21.00;;;;;7.47;78.60;102323.13;5048445;28;45067;-81
2022/11/26 04:23:07;;;;;;;;;21.50;21.00;;;;;7.46;78.62;102311.78;5048608;28;45105;-81
2022/11/26 04:25:33;;;;;;;;;21.75;21.75;;;;;7.45;78.90;102312.56;5049007;28;45147;-81
2022/11/26 04:27:58;;;;;;;;;25.25;22.75;;;;;7.38;78.48;102307.69;5049028;28;45148;-81
2022/11/26 04:30:24;;;;;;;;;26.50;21.25;;;;;7.40;78.62;102313.06;5064115;28;45204;-81
2022/11/26 04:32:49;;;;;;;;;26.00;25.50;;;;;7.41;78.48;102309.63;5068711;28;45247;-81
2022/11/26 04:35:15;;;;;;;;;25.67;24.33;;;;;7.23;78.48;102283.94;5059314;28;45123;-81
2022/11/26 04:37:40;;;;;;;;;25.25;22.75;;;;;7.38;78.70;102310.31;5057467;28;45903;-81
2022/11/26 04:40:07;;;;;;;;;25.75;24.25;;;;;7.37;78.67;102312.81;5068857;28;45142;-81
2022/11/26 04:42:32;;;;;;;;;27.75;24.75;;;;;7.15;78.55;102279.88;5053078;28;45062;-81
2022/11/26 04:44:57;;;;;;;;;23.00;20.67;;;;;7.20;78.69;102299.44;5048214;28;48884;-81
2022/11/26 04:47:23;;;;;;;;;22.25;21.50;;;;;7.18;78.71;102295.78;5049052;28;45029;-81
2022/11/26 04:49:48;;;;;;;;;22.00;20.33;;;;;7.33;78.75;102326.47;5049279;28;45642;-81
2022/11/26 04:52:13;;;;;;;;;25.00;22.33;;;;;7.34;78.83;102320.41;5068469;28;45517;-81
2022/11/26 04:54:38;;;;;;;;;22.50;20.75;;;;;7.33;78.72;102319.53;5060655;28;45062;-81
2022/11/26 04:57:04;;;;;;;;;24.00;21.33;;;;;7.26;78.61;102314.66;5047871;28;62653;-81
2022/11/26 04:59:29;;;;;;;;;20.75;20.50;;;;;7.30;78.71;102326.25;5048506;28;45139;-81
2022/11/26 05:01:54;;;;;;;;;24.00;21.00;;;;;7.29;78.85;102327.03;5048726;28;45234;-81
2022/11/26 05:04:20;;;;;;;;;25.25;22.75;;;;;7.28;78.87;102326.13;5048759;28;45100;-81
2022/11/26 05:06:45;;;;;;;;;20.67;18.67;;;;;7.17;78.81;102319.22;5047708;28;57570;-81
2022/11/26 05:09:11;;;;;;;;;21.75;21.00;;;;;7.16;78.85;102325.25;5030569;28;45441;-81
2022/11/26 05:11:36;;;;;;;;;21.25;20.00;;;;;7.28;78.79;102346.13;5048253;28;45159;-81
2022/11/26 05:14:01;;;;;;;;;16.33;16.33;;;;;7.05;78.65;102316.63;5048356;28;45156;-81
2022/11/26 05:16:27;;;;;;;;;20.75;19.75;;;;;7.12;78.56;102317.97;5047622;28;45553;-81
2022/11/26 05:18:52;;;;;;;;;19.67;17.00;;;;;7.26;78.60;102342.50;5047552;28;57160;-80
2022/11/26 05:21:17;;;;;;;;;20.67;18.33;;;;;7.31;78.50;102349.00;5048238;28;47893;-80
2022/11/26 05:23:42;;;;;;;;;16.33;15.67;;;;;7.16;78.74;102333.09;5048656;28;45029;-81
2022/11/26 05:26:08;;;;;;;;;19.67;17.00;;;;;7.27;78.69;102344.31;5048503;28;53365;-80
2022/11/26 05:28:33;;;;;;;;;19.25;18.75;;;;;7.28;78.59;102351.38;5048192;28;45179;-80
2022/11/26 05:31:01;;;;;;;;;17.00;17.00;;;;;7.21;78.52;102355.25;5029596;28;45527;-81
2022/11/26 05:33:26;;;;;;;;;18.75;18.00;;;;;7.28;78.73;102354.88;5048306;28;45157;-80
2022/11/26 05:35:52;;;;;;;;;21.75;21.75;;;;;7.32;78.75;102356.03;5047885;28;45354;-80
2022/11/26 05:38:17;;;;;;;;;20.33;17.33;;;;;7.23;78.52;102340.56;5047907;28;58228;-80
2022/11/26 05:40:42;;;;;;;;;25.25;23.50;;;;;7.19;78.82;102330.66;5048305;28;45416;-80
2022/11/26 05:43:08;;;;;;;;;29.25;26.00;;;;;7.21;78.96;102332.63;5053548;28;45009;-80
2022/11/26 05:45:36;;;;;;;;;22.00;21.25;;;;;7.36;79.00;102356.38;5068059;28;45379;-80
2022/11/26 05:48:01;;;;;;;;;25.25;23.00;;;;;7.31;79.05;102349.00;5068196;28;45080;-80
2022/11/26 05:50:26;;;;;;;;;24.25;22.75;;;;;7.32;79.04;102353.41;5055780;28;45192;-81
2022/11/26 05:52:52;;;;;;;;;25.33;24.33;;;;;7.27;79.17;102350.47;5047090;28;45132;-81
2022/11/26 05:55:17;;;;;;;;;25.67;24.67;;;;;7.37;79.14;102359.88;5059977;28;45634;-80
2022/11/26 05:57:43;;;;;;;;;27.50;25.25;;;;;7.36;79.22;102353.75;5067924;28;45480;-80
2022/11/26 06:00:09;;;;;;;;;25.00;22.00;;;;;7.37;79.02;102355.56;5049367;28;45051;-81
2022/11/26 06:02:35;;;;;;;;;25.25;24.50;;;;;7.49;79.10;102371.28;5048049;28;45220;-81
2022/11/26 06:05:01;;;;;;;;;24.75;22.50;;;;;7.53;79.42;102382.84;5047375;28;45214;-81
2022/11/26 06:07:26;;;;;;;;;22.25;21.75;;;;;7.55;78.99;102387.41;5051154;28;45118;-81
2022/11/26 06:09:52;;;;;;;;;22.75;21.50;;;;;7.56;78.72;102383.09;5051840;28;45293;-81
2022/11/26 06:12:17;;;;;;;;;21.33;19.67;;;;;7.57;78.83;102401.50;5051359;28;45376;-80
2022/11/26 06:14:42;;;;;;;;;21.33;19.67;;;;;7.58;79.10;102405.03;5050159;28;61394;-81
2022/11/26 06:17:08;;;;;;;;;27.50;22.75;;;;;7.58;78.89;102412.88;5050857;28;45054;-81
2022/11/26 06:19:33;;;;;;;;;23.25;21.50;;;;;7.60;79.03;102420.06;5051360;28;45123;-80
2022/11/26 06:21:58;;;;;;;;;27.33;21.67;;;;;7.60;78.97;102420.06;5050322;28;47770;-81
2022/11/26 06:24:24;;;;;;;;;23.00;22.33;;;;;7.49;79.08;102405.28;5050956;28;64274;-81
2022/11/26 06:26:49;;;;;;;;;21.00;20.50;;;;;7.62;79.07;102421.06;5051018;28;45141;-81
2022/11/26 06:29:15;;;;;;;;;22.75;21.50;;;;;7.64;79.11;102414.25;5049939;28;45239;-81
2022/11/26 06:31:40;;;;;;;;;10.00;7.75;;;;;7.44;78.98;102370.94;5050402;28;45235;-81
2022/11/26 06:34:08;;;;;;;;;22.25;20.50;;;;;7.52;79.04;102374.09;5050215;28;46473;-81
2022/11/26 06:36:33;;;;;;;;;28.50;25.50;;;;;7.67;79.22;102405.69;5050490;28;45167;-81
2022/11/26 06:38:59;;;;;;;;;26.25;24.00;;;;;7.69;79.15;102402.41;5050533;28;45760;-81
2022/11/26 06:41:24;;;;;;;;;24.67;23.00;;;;;7.69;79.11;102398.88;5049503;28;61210;-81
2022/11/26 06:43:49;;;;;;;;;26.75;24.00;;;;;7.63;79.22;102391.47;5050274;28;45231;-80
2022/11/26 06:46:15;;;;;;;;;25.00;24.00;;;;;7.72;79.26;102406.94;5050315;28;54561;-81
2022/11/26 06:48:40;;;;;;;;;16.75;15.00;;;;;7.78;79.13;102415.22;5068172;28;45200;-81
2022/11/26 06:51:08;;;;;;;;;29.50;28.25;;;;;7.66;78.99;102404.78;5070708;28;45120;-81
2022/11/26 06:53:34;;;;;;;;;25.00;23.25;;;;;7.67;79.05;102410.94;5070965;28;45716;-81
2022/11/26 06:56:01;;;;;;;;;20.75;19.75;;;;;7.85;79.22;102440.16;5070701;28;45100;-81
2022/11/26 06:58:26;;;;;;;;;23.00;22.50;;;;;7.86;79.12;102441.97;5054608;28;45104;-80
2022/11/26 07:00:51;;;;;;;;;26.50;25.50;;;;;7.90;79.13;102433.53;5029314;28;45153;-80
2022/11/26 07:03:17;;;;;;;;;19.33;19.33;;;;;7.93;79.32;102418.03;5054683;28;70104;-80
2022/11/26 07:05:42;;;;;;;;;20.25;18.50;;;;;7.87;78.93;102405.41;5057953;28;45149;-80
2022/11/26 07:08:07;;;;;;;;;22.00;20.00;;;;;8.00;79.42;102425.56;5062199;28;44961;-80
2022/11/26 07:10:33;;;;;;;;;22.50;21.25;;;;;7.92;79.33;102413.59;5070724;28;45081;-81
2022/11/26 07:12:59;;;;;;;;;23.75;21.75;;;;;7.90;79.19;102413.50;5069451;28;45532;-81
2022/11/26 07:15:24;;;;;;;;;16.75;16.25;;;;;7.81;78.75;102402.38;5070393;28;45131;-81
2022/11/26 07:17:50;;;;;;;;;18.00;17.75;;;;;7.89;79.03;102416.03;5069646;28;45355;-80
2022/11/26 07:20:15;;;;;;;;;23.33;21.67;;;;;7.99;78.90;102434.22;5058731;28;45046;-81
2022/11/26 07:22:40;;;;;;;;;22.25;22.00;;;;;7.91;79.05;102430.13;5050036;28;45198;-80
2022/11/26 07:25:06;;;;;;;;;18.67;18.33;;;;;7.85;79.02;102420.13;5049898;28;51342;-81
2022/11/26 07:27:31;;;;;;;;;22.00;20.75;;;;;7.99;79.25;102444.69;5050125;28;45346;-80
2022/11/26 07:29:57;;;;;;;;;20.00;18.00;;;;;7.93;79.69;102445.16;5049356;28;53796;-80
2022/11/26 07:32:22;;;;;;;;;26.67;25.00;;;;;8.02;79.40;102444.88;5050093;28;45556;-81
2022/11/26 07:34:47;;;;;;;;;23.00;22.33;;;;;8.00;78.90;102439.56;5049798;28;49263;-81
2022/11/26 07:37:12;;;;;;;;;24.50;22.50;;;;;8.01;79.49;102443.97;5049074;28;45208;-81
2022/11/26 07:39:38;;;;;;;;;26.00;25.67;;;;;8.04;79.67;102440.69;5048974;28;55531;-80
2022/11/26 07:42:03;;;;;;;;;22.00;20.67;;;;;8.06;79.40;102438.16;5048892;28;47675;-80
2022/11/26 07:44:28;;;;;;;;;22.75;21.75;;;;;8.08;79.63;102434.88;5049812;28;45342;-79
2022/11/26 07:46:54;;;;;;;;;23.50;21.25;;;;;7.94;79.20;102406.78;5049078;28;45394;-80
2022/11/26 07:49:19;;;;;;;;;19.33;18.00;;;;;8.12;79.58;102435.97;5048707;28;65405;-80
2022/11/26 07:51:44;;;;;;;;;21.33;20.00;;;;;7.98;79.34;102401.00;5038464;28;47785;-80
2022/11/26 07:54:10;;;;;;;;;19.67;19.67;;;;;8.10;79.41;102420.19;5028659;28;60569;-80
2022/11/26 07:56:35;;;;;;;;;21.75;19.00;;;;;8.14;79.42;102416.97;5030021;28;45333;-81
2022/11/26 07:59:01;;;;;;;;;19.25;17.00;;;;;8.18;79.42;102416.41;5028935;28;54639;-81
2022/11/26 08:01:28;;;;;;;;;19.25;17.25;;;;;8.22;79.10;102410.56;5029007;28;45050;-81
2022/11/26 08:03:54;;;;;;;;;20.00;20.00;;;;;8.16;79.19;102402.28;5028427;28;45032;-81
2022/11/26 08:06:22;;;;;;;;;22.25;21.00;;;;;8.07;79.14;102401.63;5046506;28;45235;-86
2022/11/26 08:08:48;;;;;;;;;20.00;18.50;;;;;8.27;79.15;102423.97;5030354;28;45247;-80
2022/11/26 08:11:16;;;;;;;;;20.00;18.75;;;;;8.28;79.02;102439.81;5049328;28;45319;-79
2022/11/26 08:13:42;;;;;;;;;2.00;1.00;;;;;8.23;79.07;102435.06;5048074;28;45247;-80
2022/11/26 08:16:08;;;;;;;;;19.00;18.00;;;;;8.25;79.27;102450.06;5048764;28;45214;-80
2022/11/26 08:18:34;;;;;;;;;19.25;18.25;;;;;8.21;78.92;102449.75;5048366;28;45006;-80
2022/11/26 08:20:59;;;;;;;;;22.25;20.25;;;;;8.25;79.21;102457.03;5048545;28;45614;-80
2022/11/26 08:23:27;;;;;;;;;20.25;17.00;;;;;8.30;79.52;102462.59;5049389;28;45089;-80
2022/11/26 08:25:52;;;;;;;;;24.00;20.50;;;;;8.19;79.30;102439.16;5048855;28;45336;-80
2022/11/26 08:28:18;;;;;;;;;21.00;20.67;;;;;8.36;79.59;102457.78;5048345;28;56053;-80
2022/11/26 08:30:44;;;;;;;;;20.50;18.75;;;;;8.43;79.40;102460.09;5048423;28;45527;-80
2022/11/26 08:33:09;;;;;;;;;20.50;20.00;;;;;8.39;79.69;102435.38;5048315;28;45073;-80
2022/11/26 08:35:34;;;;;;;;;23.75;20.00;;;;;8.49;79.20;102439.56;5048992;28;45153;-80
2022/11/26 08:38:00;;;;;;;;;22.75;22.25;;;;;8.64;79.05;102461.59;5048529;28;45164;-80
2022/11/26 08:40:25;;;;;;;;;16.50;15.50;;;;;8.64;78.83;102448.47;5038361;28;46072;-81
2022/11/26 08:42:51;;;;;;;;;17.75;17.25;;;;;8.44;78.95;102420.88;5029692;28;45788;-81
2022/11/26 08:45:16;;;;;;;;;17.33;17.33;;;;;8.58;79.26;102434.03;5029751;28;46269;-81
2022/11/26 08:47:41;;;;;;;;;23.33;21.33;;;;;8.68;79.09;102449.59;5029006;28;55126;-80
2022/11/26 08:50:07;;;;;;;;;19.00;18.00;;;;;8.71;79.25;102436.69;5033172;28;46047;-80
2022/11/26 08:52:33;;;;;;;;;20.75;18.00;;;;;8.77;79.07;102453.78;5048329;28;45151;-80
2022/11/26 08:54:58;;;;;;;;;18.00;17.33;;;;;8.76;79.12;102456.28;5047885;28;55386;-79
2022/11/26 08:57:23;;;;;;;;;33.67;30.00;;;;;8.76;78.94;102462.41;5048237;28;59105;-80
2022/11/26 08:59:50;;;;;;;;;31.00;25.00;;;;;8.59;79.04;102426.28;5046298;28;49653;-80
2022/11/26 09:02:16;;;;;;;;;23.50;20.75;;;;;8.82;79.00;102455.78;5048531;28;45529;-80
2022/11/26 09:04:41;;;;;;;;;22.50;21.00;;;;;8.87;78.82;102467.53;5048345;28;45401;-81
2022/11/26 09:07:06;;;;;;;;;21.67;21.33;;;;;8.83;78.99;102444.50;5044690;28;62086;-79
2022/11/26 09:09:32;;;;;;;;;27.67;25.33;;;;;8.97;78.85;102456.88;5042547;28;54151;-81
2022/11/26 09:11:59;;;;;;;;;21.33;19.00;;;;;8.96;79.02;102450.69;5043826;28;48158;-81
2022/11/26 09:14:27;;;;;;;;;24.25;23.75;;;;;9.03;78.74;102462.50;5034082;28;45400;-81
2022/11/26 09:16:54;;;;;;;;;24.25;23.25;;;;;9.05;78.73;102458.28;5038788;28;45144;-81
2022/11/26 09:19:19;;;;;;;;;21.50;19.25;;;;;9.07;78.57;102464.56;5035638;28;45088;-80
2022/11/26 09:21:45;;;;;;;;;32.50;29.00;;;;;9.11;78.90;102463.94;5027914;28;45273;-80
2022/11/26 09:24:11;;;;;;;;;45.50;37.50;;;;;9.14;78.73;102444.88;5028385;28;45236;-80
2022/11/26 09:26:37;;;;;;;;;20.50;18.50;;;;;9.18;78.42;102457.41;5038392;28;45097;-80
2022/11/26 09:29:03;;;;;;;;;20.25;18.25;;;;;9.19;78.61;102443.47;5047910;28;45366;-80
2022/11/26 09:31:29;;;;;;;;;25.75;20.75;;;;;9.22;78.57;102447.22;5029285;28;45597;-80
2022/11/26 09:33:56;;;;;;;;;19.50;18.50;;;;;9.03;78.65;102421.47;5047228;28;45181;-80
2022/11/26 09:36:22;;;;;;;;;22.50;21.75;;;;;9.19;78.84;102449.63;5048462;28;45123;-80
2022/11/26 09:38:47;;;;;;;;;18.50;17.50;;;;;9.06;79.36;102415.50;5047579;28;45332;-81
2022/11/26 09:41:27;;;;;;;;;23.50;19.75;;;;;9.25;78.96;102442.16;5047117;28;45060;-80
2022/11/26 09:44:12;;;;;;;;;21.75;20.00;;;;;9.29;78.98;102440.66;5010453;28;45839;-80
2022/11/26 09:47:02;;;;;;;;;41.75;38.75;;;;;9.28;78.85;102455.50;5029215;28;45923;-80
2022/11/26 09:49:35;;;;;;;;;23.50;19.75;;;;;9.19;78.96;102439.13;5028709;28;46398;-80
2022/11/26 09:52:03;;;;;;;;;24.25;22.00;;;;;9.30;79.03;102448.63;5008935;28;45452;-80
2022/11/26 09:54:29;;;;;;;;;22.25;22.25;;;;;9.32;79.24;102435.63;5023828;28;45425;-80
2022/11/26 09:57:20;;;;;;;;;28.75;26.25;;;;;9.35;79.09;102425.31;5028892;28;45524;-80
2022/11/26 09:59:49;;;;;;;;;37.00;35.00;;;;;9.42;79.53;102432.81;5019241;28;46487;-80
2022/11/26 10:02:14;;;;;;;;;25.75;20.25;;;;;9.50;79.20;102438.53;5028818;28;45819;-80
2022/11/26 10:04:40;;;;;;;;;23.00;20.33;;;;;9.50;79.37;102438.53;5028302;28;46945;-81
2022/11/26 10:07:23;;;;;;;;;23.75;20.75;;;;;9.60;79.15;102442.69;5028603;28;45598;-81
2022/11/26 10:10:03;;;;;;;;;22.50;21.00;;;;;9.63;79.13;102437.66;5028199;28;52203;-80
2022/11/26 10:13:02;;;;;;;;;22.75;19.00;;;;;9.33;79.04;102392.84;5028641;28;45838;-80
2022/11/26 10:15:41;;;;;;;;;22.50;19.00;;;;;9.56;79.30;102431.09;4991005;28;45702;-80
2022/11/26 10:18:35;;;;;;;;;24.75;19.25;;;;;9.64;79.33;102450.88;5010595;28;45388;-80
2022/11/26 10:21:28;;;;;;;;;27.25;21.25;;;;;9.54;79.30;102423.09;5009035;28;47729;-80
2022/11/26 10:24:02;;;;;;;;;26.25;23.25;;;;;9.72;79.34;102439.16;5038168;28;45526;-81
2022/11/26 10:26:38;;;;;;;;;26.00;23.00;;;;;9.71;79.54;102426.84;5032289;28;45173;-80
2022/11/26 10:29:12;;;;;;;;;28.25;24.75;;;;;9.81;79.34;102433.59;5053931;28;45437;-81
2022/11/26 10:31:41;;;;;;;;;29.50;25.75;;;;;9.80;79.63;102406.44;5040975;28;45644;-80
2022/11/26 10:34:36;;;;;;;;;24.75;23.25;;;;;9.96;79.38;102417.91;5046104;28;45572;-80
2022/11/26 10:37:02;;;;;;;;;30.25;24.00;;;;;9.97;79.36;102407.50;5044515;28;45372;-80
2022/11/26 10:39:28;;;;;;;;;27.75;24.00;;;;;9.98;79.08;102396.19;5047007;28;45188;-80
2022/11/26 10:41:53;;;;;;;;;25.00;20.67;;;;;9.96;79.41;102389.03;5044752;28;47263;-81
2022/11/26 10:44:32;;;;;;;;;22.25;20.50;;;;;9.87;79.39;102376.22;5039422;28;45467;-80
2022/11/26 10:46:58;;;;;;;;;19.50;18.50;;;;;10.08;79.40;102406.44;5040201;28;45464;-80
2022/11/26 10:49:27;;;;;;;;;22.75;20.75;;;;;10.12;79.32;102410.19;5044787;28;44993;-80
2022/11/26 10:52:02;;;;;;;;;30.75;23.00;;;;;10.15;79.48;102405.13;5046331;28;45293;-80
2022/11/26 10:54:30;;;;;;;;;23.50;22.00;;;;;10.27;79.26;102405.03;5045388;28;45549;-80
2022/11/26 10:57:09;;;;;;;;;30.25;25.00;;;;;10.23;78.86;102411.75;5048902;28;45034;-80
2022/11/26 10:59:43;;;;;;;;;23.25;22.75;;;;;10.23;78.91;102414.38;5036878;28;45108;-80
2022/11/26 11:02:21;;;;;;;;;31.50;22.50;;;;;10.21;79.11;102416.03;5049900;28;45126;-81
2022/11/26 11:04:50;;;;;;;;;22.50;20.50;;;;;10.10;78.82;102403.94;5044638;28;45661;-80
2022/11/26 11:07:36;;;;;;;;;23.00;20.00;;;;;10.20;79.29;102424.72;5030683;28;45542;-80
2022/11/26 11:10:15;;;;;;;;;29.50;24.00;;;;;10.21;79.06;102420.38;5030863;28;45462;-81
2022/11/26 11:12:44;;;;;;;;;22.00;20.25;;;;;10.08;79.18;102422.22;5033946;28;48421;-80
2022/11/26 11:15:23;;;;;;;;;26.50;23.75;;;;;10.08;79.51;102408.19;5031190;28;45591;-80
2022/11/26 11:18:05;;;;;;;;;22.50;19.00;;;;;9.86;79.55;102370.88;5030771;28;45615;-80
2022/11/26 11:20:32;;;;;;;;;23.75;20.00;;;;;10.11;79.55;102405.75;5031600;28;45473;-80
2022/11/26 11:23:02;;;;;;;;;25.00;21.25;;;;;9.97;79.65;102378.59;5031362;28;46303;-80